createdAt,value
2023-02-26T00:01:32.738Z,82.20
2023-02-26T00:04:03.296Z,82.00
2023-02-26T00:06:33.576Z,81.80
2023-02-26T00:09:01.331Z,81.70
2023-02-26T00:11:29.034Z,81.80
2023-02-26T00:13:56.767Z,81.80
2023-02-26T00:16:29.318Z,81.80
2023-02-26T00:18:59.092Z,81.70
2023-02-26T00:21:28.563Z,81.70
2023-02-26T00:23:56.992Z,81.60
2023-02-26T00:26:27.014Z,81.70
2023-02-26T00:28:55.997Z,81.60
2023-02-26T00:31:24.905Z,81.60
2023-02-26T00:33:55.006Z,81.10
2023-02-26T00:36:37.819Z,80.90
2023-02-26T00:39:27.228Z,80.80
2023-02-26T00:41:54.815Z,80.00
2023-02-26T00:44:22.520Z,79.80
2023-02-26T00:47:14.001Z,79.60
2023-02-26T00:50:04.283Z,79.10
2023-02-26T00:52:43.620Z,79.20
2023-02-26T00:55:11.056Z,79.10
2023-02-26T00:57:38.470Z,79.10
2023-02-26T01:00:08.196Z,79.20
2023-02-26T01:02:37.899Z,79.40
2023-02-26T01:05:06.294Z,79.40
2023-02-26T01:08:04.647Z,79.30
2023-02-26T01:10:32.875Z,79.30
2023-02-26T01:13:00.645Z,79.30
2023-02-26T01:15:28.417Z,78.90
2023-02-26T01:18:00.996Z,78.60
2023-02-26T01:20:35.806Z,78.30
2023-02-26T01:23:16.339Z,78.50
2023-02-26T01:26:03.823Z,78.10
2023-02-26T01:28:31.616Z,77.90
2023-02-26T01:31:05.266Z,77.80
2023-02-26T01:33:43.805Z,77.50
2023-02-26T01:36:21.069Z,77.60
2023-02-26T01:38:57.364Z,77.70
2023-02-26T01:42:07.817Z,77.80
2023-02-26T01:44:37.972Z,76.90
2023-02-26T01:47:29.354Z,76.70
2023-02-26T01:49:59.575Z,76.80
2023-02-26T01:52:50.118Z,77.00
2023-02-26T01:55:22.261Z,76.50
2023-02-26T01:57:52.289Z,76.20
2023-02-26T02:00:20.801Z,76.40
2023-02-26T02:02:49.658Z,76.40
2023-02-26T02:05:47.233Z,76.40
2023-02-26T02:08:15.584Z,75.80
2023-02-26T02:10:45.794Z,75.90
2023-02-26T02:13:42.241Z,76.10
2023-02-26T02:16:24.330Z,76.30
2023-02-26T02:19:43.275Z,76.20
2023-02-26T02:22:48.306Z,76.10
2023-02-26T02:25:40.581Z,76.10
2023-02-26T02:28:19.844Z,76.20
2023-02-26T02:30:57.124Z,76.10
2023-02-26T02:33:32.890Z,76.10
2023-02-26T02:36:10.322Z,76.20
2023-02-26T02:38:48.907Z,76.20
2023-02-26T02:41:40.074Z,76.20
2023-02-26T02:44:12.504Z,76.20
2023-02-26T02:46:43.242Z,76.20
2023-02-26T02:49:17.897Z,76.70
2023-02-26T02:51:58.736Z,75.90
2023-02-26T02:54:41.947Z,76.10
2023-02-26T02:57:24.125Z,75.90
2023-02-26T02:59:58.676Z,76.00
2023-02-26T03:02:55.691Z,76.00
2023-02-26T03:05:23.181Z,76.20
2023-02-26T03:07:56.486Z,75.80
2023-02-26T03:10:24.246Z,76.00
2023-02-26T03:12:51.744Z,76.10
2023-02-26T03:15:34.059Z,75.80
2023-02-26T03:18:18.428Z,76.00
2023-02-26T03:20:55.034Z,75.90
2023-02-26T03:23:32.161Z,76.00
2023-02-26T03:26:29.729Z,75.90
2023-02-26T03:29:10.205Z,75.80
2023-02-26T03:31:50.406Z,75.60
2023-02-26T03:34:33.914Z,75.50
2023-02-26T03:37:12.010Z,75.50
2023-02-26T03:39:43.421Z,75.60
2023-02-26T03:42:19.942Z,75.60
2023-02-26T03:45:09.625Z,75.70
2023-02-26T03:47:40.564Z,75.20
2023-02-26T03:50:17.711Z,75.10
2023-02-26T03:53:10.339Z,75.40
2023-02-26T03:56:05.584Z,75.10
2023-02-26T03:58:51.284Z,75.00
2023-02-26T04:01:53.334Z,74.80
2023-02-26T04:04:31.674Z,75.00
2023-02-26T04:07:00.296Z,75.60
2023-02-26T04:09:27.937Z,75.00
2023-02-26T04:11:57.528Z,74.80
2023-02-26T04:14:24.788Z,75.10
2023-02-26T04:16:54.281Z,75.40
2023-02-26T04:19:21.575Z,75.50
2023-02-26T04:21:49.084Z,75.60
2023-02-26T04:24:17.208Z,75.20
2023-02-26T04:26:45.536Z,75.40
2023-02-26T04:29:16.349Z,75.70
2023-02-26T04:31:44.355Z,75.90
2023-02-26T04:34:11.965Z,75.50
2023-02-26T04:36:39.851Z,75.50
2023-02-26T04:39:10.629Z,75.90
2023-02-26T04:41:39.406Z,75.90
2023-02-26T04:44:06.975Z,76.10
2023-02-26T04:46:36.908Z,75.90
2023-02-26T04:49:04.878Z,76.30
2023-02-26T04:51:32.364Z,76.60
2023-02-26T04:53:59.760Z,76.70
2023-02-26T04:56:27.380Z,77.00
2023-02-26T04:58:54.761Z,77.00
2023-02-26T05:01:28.493Z,77.20
2023-02-26T05:03:56.651Z,77.30
2023-02-26T05:06:24.646Z,77.50
2023-02-26T05:08:53.327Z,77.70
2023-02-26T05:11:20.745Z,78.00
2023-02-26T05:13:48.360Z,78.30
2023-02-26T05:16:16.039Z,78.50
2023-02-26T05:18:43.447Z,78.80
2023-02-26T05:21:10.897Z,79.00
2023-02-26T05:23:38.817Z,79.20
2023-02-26T05:26:06.178Z,79.30
2023-02-26T05:28:34.009Z,79.70
2023-02-26T05:31:01.636Z,80.00
2023-02-26T05:33:29.356Z,80.20
2023-02-26T05:35:57.586Z,80.70
2023-02-26T05:38:24.901Z,81.10
2023-02-26T05:40:56.600Z,81.40
2023-02-26T05:43:23.909Z,81.60
2023-02-26T05:45:51.896Z,82.30
2023-02-26T05:48:19.612Z,82.80
2023-02-26T05:50:48.907Z,83.30
2023-02-26T05:53:16.564Z,83.70
2023-02-26T05:55:44.094Z,84.10
2023-02-26T05:58:11.516Z,84.90
2023-02-26T06:00:39.438Z,85.60
2023-02-26T06:03:06.934Z,86.20
2023-02-26T06:05:36.180Z,86.60
2023-02-26T06:08:05.544Z,87.10
2023-02-26T06:10:33.887Z,87.30
2023-02-26T06:13:01.719Z,87.80
2023-02-26T06:15:29.291Z,88.20
2023-02-26T06:17:56.711Z,88.70
2023-02-26T06:20:24.264Z,89.20
2023-02-26T06:22:51.560Z,89.40
2023-02-26T06:25:18.824Z,89.90
2023-02-26T06:27:46.167Z,90.00
2023-02-26T06:30:13.699Z,90.00
2023-02-26T06:32:41.052Z,90.10
2023-02-26T06:35:08.910Z,90.20
2023-02-26T06:37:36.753Z,90.30
2023-02-26T06:40:04.920Z,90.30
2023-02-26T06:42:32.223Z,90.30
2023-02-26T06:44:59.476Z,90.20
2023-02-26T06:47:26.908Z,90.10
2023-02-26T06:49:54.273Z,90.10
2023-02-26T06:52:21.700Z,90.10
2023-02-26T06:54:48.941Z,90.10
2023-02-26T06:57:16.250Z,90.10
2023-02-26T06:59:43.538Z,90.20
2023-02-26T07:02:17.427Z,90.10
2023-02-26T07:04:44.985Z,90.10
2023-02-26T07:07:12.786Z,90.20
2023-02-26T07:09:40.350Z,90.20
2023-02-26T07:12:07.904Z,90.20
2023-02-26T07:14:35.409Z,90.10
2023-02-26T07:17:03.102Z,89.40
2023-02-26T07:19:30.606Z,88.60
2023-02-26T07:21:57.935Z,88.10
2023-02-26T07:24:25.593Z,88.30
2023-02-26T07:26:53.304Z,88.20
2023-02-26T07:29:20.605Z,87.70
2023-02-26T07:31:47.993Z,87.40
2023-02-26T07:34:15.409Z,86.80
2023-02-26T07:36:42.657Z,87.10
2023-02-26T07:39:11.166Z,87.30
2023-02-26T07:41:38.622Z,86.20
2023-02-26T07:44:14.719Z,86.30
2023-02-26T07:46:42.267Z,86.80
2023-02-26T07:49:09.986Z,86.20
2023-02-26T07:51:37.775Z,86.00
2023-02-26T07:54:05.226Z,85.30
2023-02-26T07:56:32.511Z,84.40
2023-02-26T07:59:00.125Z,84.90
2023-02-26T08:01:27.447Z,82.50
2023-02-26T08:03:54.802Z,82.40
2023-02-26T08:06:22.241Z,82.20
2023-02-26T08:08:49.735Z,80.90
2023-02-26T08:11:17.148Z,79.80
2023-02-26T08:13:44.493Z,79.50
2023-02-26T08:16:12.331Z,78.20
2023-02-26T08:18:39.940Z,77.80
2023-02-26T08:21:07.298Z,77.40
2023-02-26T08:23:34.553Z,77.20
2023-02-26T08:26:07.822Z,76.60
2023-02-26T08:28:35.614Z,76.70
2023-02-26T08:31:03.634Z,77.20
2023-02-26T08:33:31.052Z,78.00
2023-02-26T08:35:59.023Z,76.20
2023-02-26T08:38:27.783Z,75.60
2023-02-26T08:40:56.629Z,75.50
2023-02-26T08:43:25.349Z,75.20
2023-02-26T08:45:54.736Z,75.50
2023-02-26T08:48:23.024Z,75.40
2023-02-26T08:50:50.975Z,74.30
2023-02-26T08:53:18.504Z,74.30
2023-02-26T08:55:51.774Z,73.60
2023-02-26T08:58:20.162Z,72.30
2023-02-26T09:00:47.896Z,72.20
2023-02-26T09:03:15.252Z,72.40
2023-02-26T09:05:43.031Z,73.50
2023-02-26T09:08:11.535Z,72.30
2023-02-26T09:10:40.977Z,72.70
2023-02-26T09:13:09.369Z,71.80
2023-02-26T09:15:37.412Z,70.50
2023-02-26T09:18:08.352Z,70.10
2023-02-26T09:20:35.867Z,69.20
2023-02-26T09:23:03.411Z,68.60
2023-02-26T09:25:33.744Z,68.60
2023-02-26T09:28:02.530Z,70.00
2023-02-26T09:30:30.219Z,70.30
2023-02-26T09:33:02.682Z,69.30
2023-02-26T09:35:30.072Z,68.50
2023-02-26T09:37:57.549Z,68.40
2023-02-26T09:40:54.316Z,69.10
2023-02-26T09:43:43.117Z,69.50
2023-02-26T09:46:48.973Z,69.30
2023-02-26T09:49:39.632Z,68.30
2023-02-26T09:52:18.508Z,68.90
2023-02-26T09:54:49.629Z,68.90
2023-02-26T09:57:48.533Z,67.60
2023-02-26T10:00:35.350Z,67.10
2023-02-26T10:03:19.477Z,66.50
2023-02-26T10:05:56.299Z,66.90
2023-02-26T10:08:30.872Z,66.90
2023-02-26T10:11:14.185Z,66.30
2023-02-26T10:13:57.635Z,65.50
2023-02-26T10:16:31.619Z,66.50
2023-02-26T10:19:13.968Z,66.20
2023-02-26T10:21:54.759Z,63.10
2023-02-26T10:24:32.289Z,63.80
2023-02-26T10:27:13.024Z,62.50
2023-02-26T10:30:02.538Z,60.70
2023-02-26T10:32:50.983Z,60.20
2023-02-26T10:35:20.686Z,60.20
2023-02-26T10:38:02.778Z,60.60
2023-02-26T10:40:30.041Z,59.80
2023-02-26T10:43:00.109Z,60.00
2023-02-26T10:45:33.256Z,61.30
2023-02-26T10:48:00.570Z,61.30
2023-02-26T10:50:29.296Z,60.80
2023-02-26T10:52:57.788Z,61.00
2023-02-26T10:55:41.645Z,59.90
2023-02-26T10:58:14.424Z,59.20
2023-02-26T11:00:48.155Z,59.00
2023-02-26T11:03:20.299Z,57.40
2023-02-26T11:05:48.877Z,57.40
2023-02-26T11:08:21.916Z,58.60
2023-02-26T11:10:53.168Z,59.10
2023-02-26T11:13:22.766Z,58.60
2023-02-26T11:15:52.602Z,57.80
2023-02-26T11:18:40.115Z,56.50
2023-02-26T11:21:09.651Z,56.60
2023-02-26T11:23:37.572Z,56.80
2023-02-26T11:26:09.093Z,56.30
2023-02-26T11:28:44.180Z,57.00
2023-02-26T11:31:15.221Z,56.10
2023-02-26T11:33:50.660Z,55.50
2023-02-26T11:36:20.093Z,54.70
2023-02-26T11:38:58.156Z,55.00
2023-02-26T11:41:28.453Z,55.30
2023-02-26T11:44:03.456Z,55.80
2023-02-26T11:46:31.310Z,58.80
2023-02-26T11:49:01.448Z,67.70
2023-02-26T11:51:29.946Z,72.00
2023-02-26T11:54:02.976Z,73.40
2023-02-26T11:56:32.681Z,72.30
2023-02-26T11:59:27.632Z,71.50
2023-02-26T12:01:55.150Z,70.30
2023-02-26T12:04:27.670Z,68.80
2023-02-26T12:06:56.037Z,68.40
2023-02-26T12:09:26.127Z,67.20
2023-02-26T12:12:21.493Z,66.90
2023-02-26T12:15:15.014Z,66.40
2023-02-26T12:17:51.038Z,67.40
2023-02-26T12:20:35.402Z,69.90
2023-02-26T12:23:20.807Z,70.80
2023-02-26T12:26:12.164Z,69.70
2023-02-26T12:28:42.519Z,71.10
2023-02-26T12:31:18.778Z,71.10
2023-02-26T12:33:51.617Z,69.20
2023-02-26T12:36:27.050Z,65.30
2023-02-26T12:39:12.978Z,64.30
2023-02-26T12:42:04.914Z,63.90
2023-02-26T12:45:03.904Z,64.70
2023-02-26T12:48:05.200Z,63.70
2023-02-26T12:50:56.501Z,62.90
2023-02-26T12:53:26.538Z,62.20
2023-02-26T12:56:18.731Z,62.60
2023-02-26T12:59:06.240Z,59.30
2023-02-26T13:02:00.947Z,59.80
2023-02-26T13:04:39.602Z,58.30
2023-02-26T13:07:31.513Z,58.20
2023-02-26T13:10:20.389Z,58.10
2023-02-26T13:13:05.565Z,58.30
2023-02-26T13:15:38.720Z,58.40
2023-02-26T13:18:22.976Z,58.70
2023-02-26T13:21:00.700Z,57.90
2023-02-26T13:23:57.387Z,57.90
2023-02-26T13:26:28.454Z,58.60
2023-02-26T13:29:19.456Z,58.90
2023-02-26T13:32:05.437Z,58.70
2023-02-26T13:35:01.039Z,59.20
2023-02-26T13:37:45.398Z,59.00
2023-02-26T13:40:47.936Z,57.80
2023-02-26T13:43:33.318Z,58.00
2023-02-26T13:46:26.368Z,57.80
2023-02-26T13:49:02.571Z,58.40
2023-02-26T13:51:52.502Z,58.60
2023-02-26T13:54:29.037Z,59.10
2023-02-26T13:57:26.539Z,60.10
2023-02-26T14:00:13.153Z,63.20
2023-02-26T14:02:51.833Z,64.80
2023-02-26T14:05:46.356Z,65.50
2023-02-26T14:08:40.575Z,66.40
2023-02-26T14:11:39.532Z,67.20
2023-02-26T14:14:20.295Z,68.10
2023-02-26T14:17:07.874Z,68.60
2023-02-26T14:19:53.670Z,68.30
2023-02-26T14:22:29.791Z,67.10
2023-02-26T14:24:59.419Z,67.40
2023-02-26T14:27:38.380Z,67.10
2023-02-26T14:30:19.506Z,67.80
2023-02-26T14:32:49.385Z,67.50
2023-02-26T14:35:26.358Z,67.30
2023-02-26T14:38:23.166Z,66.80
2023-02-26T14:41:21.290Z,66.80
2023-02-26T14:44:06.514Z,66.90
2023-02-26T14:46:35.738Z,67.90
2023-02-26T14:49:03.885Z,69.00
2023-02-26T14:52:08.076Z,70.50
2023-02-26T14:55:09.783Z,70.00
2023-02-26T14:57:51.819Z,70.50
2023-02-26T15:00:34.148Z,69.40
2023-02-26T15:03:17.721Z,68.70
2023-02-26T15:05:53.085Z,69.10
2023-02-26T15:08:34.051Z,68.00
2023-02-26T15:11:10.922Z,68.10
2023-02-26T15:13:58.451Z,68.30
2023-02-26T15:16:45.796Z,68.10
2023-02-26T15:19:41.219Z,69.50
2023-02-26T15:22:34.998Z,69.40
2023-02-26T15:25:05.022Z,69.30
2023-02-26T15:27:33.116Z,69.30
2023-02-26T15:30:00.950Z,69.50
2023-02-26T15:32:30.747Z,70.00
2023-02-26T15:34:59.875Z,70.30
2023-02-26T15:37:33.859Z,70.70
2023-02-26T15:40:05.906Z,70.70
2023-02-26T15:42:38.437Z,69.60
2023-02-26T15:45:28.185Z,69.30
2023-02-26T15:48:00.117Z,68.90
2023-02-26T15:50:34.559Z,67.30
2023-02-26T15:53:05.259Z,65.80
2023-02-26T15:55:38.476Z,66.00
2023-02-26T15:58:07.739Z,66.50
2023-02-26T16:00:37.279Z,65.80
2023-02-26T16:03:04.868Z,65.20
2023-02-26T16:05:32.315Z,65.60
2023-02-26T16:07:59.881Z,65.20
2023-02-26T16:10:41.737Z,65.10
2023-02-26T16:13:16.081Z,65.40
2023-02-26T16:15:44.531Z,65.70
2023-02-26T16:18:18.426Z,65.80
2023-02-26T16:20:49.662Z,66.00
2023-02-26T16:23:23.010Z,66.00
2023-02-26T16:25:54.545Z,66.00
2023-02-26T16:28:34.616Z,65.80
2023-02-26T16:31:05.354Z,66.10
2023-02-26T16:33:35.860Z,66.30
2023-02-26T16:36:11.208Z,66.50
2023-02-26T16:38:58.698Z,66.90
2023-02-26T16:41:30.220Z,67.50
2023-02-26T16:44:01.312Z,67.50
2023-02-26T16:46:28.611Z,67.50
2023-02-26T16:49:00.674Z,67.50
2023-02-26T16:51:30.985Z,67.70
2023-02-26T16:54:00.108Z,67.80
2023-02-26T16:56:42.503Z,67.40
2023-02-26T16:59:17.991Z,67.60
2023-02-26T17:01:55.271Z,67.20
2023-02-26T17:04:32.262Z,66.90
2023-02-26T17:06:59.884Z,67.10
2023-02-26T17:09:34.011Z,66.40
2023-02-26T17:12:23.021Z,65.10
2023-02-26T17:15:01.087Z,64.30
2023-02-26T17:17:29.039Z,64.20
2023-02-26T17:19:56.813Z,63.20
2023-02-26T17:22:29.179Z,62.70
2023-02-26T17:24:59.096Z,62.70
2023-02-26T17:27:36.412Z,62.30
2023-02-26T17:30:06.985Z,62.70
2023-02-26T17:32:36.101Z,63.40
2023-02-26T17:35:05.995Z,63.60
2023-02-26T17:37:36.181Z,63.50
2023-02-26T17:40:07.616Z,63.40
2023-02-26T17:42:36.866Z,63.60
2023-02-26T17:45:04.330Z,62.90
2023-02-26T17:47:31.562Z,62.90
2023-02-26T17:50:00.070Z,61.90
2023-02-26T17:52:27.347Z,61.50
2023-02-26T17:54:54.857Z,61.60
2023-02-26T17:57:22.876Z,61.90
2023-02-26T17:59:50.303Z,62.10
2023-02-26T18:02:25.418Z,61.80
2023-02-26T18:04:53.199Z,61.90
2023-02-26T18:07:21.804Z,62.20
2023-02-26T18:09:49.293Z,62.50
2023-02-26T18:12:21.809Z,62.30
2023-02-26T18:14:49.874Z,63.10
2023-02-26T18:17:27.105Z,62.60
2023-02-26T18:19:55.043Z,62.90
2023-02-26T18:22:25.339Z,63.00
2023-02-26T18:24:54.005Z,63.40
2023-02-26T18:27:24.135Z,63.80
2023-02-26T18:29:52.204Z,63.70
2023-02-26T18:32:25.151Z,64.10
2023-02-26T18:34:52.831Z,64.50
2023-02-26T18:37:25.650Z,64.60
2023-02-26T18:39:53.182Z,64.80
2023-02-26T18:42:22.323Z,65.20
2023-02-26T18:44:50.613Z,65.50
2023-02-26T18:47:19.391Z,66.00
2023-02-26T18:49:48.201Z,66.80
2023-02-26T18:52:16.029Z,66.10
2023-02-26T18:54:43.472Z,66.30
2023-02-26T18:57:11.235Z,66.30
2023-02-26T18:59:38.472Z,66.30
2023-02-26T19:02:06.905Z,66.50
2023-02-26T19:04:34.639Z,66.60
2023-02-26T19:07:02.131Z,66.70
2023-02-26T19:09:30.083Z,66.90
2023-02-26T19:11:57.747Z,67.10
2023-02-26T19:14:25.699Z,67.50
2023-02-26T19:16:53.242Z,67.90
2023-02-26T19:19:21.164Z,68.20
2023-02-26T19:21:49.121Z,68.50
2023-02-26T19:24:16.585Z,68.90
2023-02-26T19:26:44.721Z,69.20
2023-02-26T19:29:16.381Z,69.20
2023-02-26T19:31:44.229Z,69.30
2023-02-26T19:34:12.461Z,69.60
2023-02-26T19:36:42.798Z,69.70
2023-02-26T19:39:11.807Z,69.80
2023-02-26T19:41:39.060Z,70.00
2023-02-26T19:44:06.410Z,70.00
2023-02-26T19:46:33.743Z,69.90
2023-02-26T19:49:01.077Z,69.80
2023-02-26T19:51:28.911Z,69.60
2023-02-26T19:53:56.534Z,69.10
2023-02-26T19:56:23.942Z,69.00
2023-02-26T19:58:51.299Z,68.80
2023-02-26T20:01:18.809Z,68.90
2023-02-26T20:03:48.061Z,69.00
2023-02-26T20:06:16.303Z,68.50
2023-02-26T20:08:43.867Z,68.30
2023-02-26T20:11:11.293Z,68.00
2023-02-26T20:13:39.006Z,68.20
2023-02-26T20:16:08.798Z,67.50
2023-02-26T20:18:36.449Z,67.50
2023-02-26T20:21:08.253Z,67.90
2023-02-26T20:23:39.462Z,68.30
2023-02-26T20:26:10.775Z,68.80
2023-02-26T20:28:38.824Z,68.90
2023-02-26T20:31:07.260Z,69.20
2023-02-26T20:33:36.145Z,69.40
2023-02-26T20:36:03.775Z,69.60
2023-02-26T20:38:31.307Z,69.90
2023-02-26T20:40:58.748Z,70.10
2023-02-26T20:43:29.563Z,70.20
2023-02-26T20:45:57.073Z,69.80
2023-02-26T20:48:25.004Z,70.00
2023-02-26T20:50:53.741Z,69.90
2023-02-26T20:53:22.015Z,70.00
2023-02-26T20:55:49.682Z,70.00
2023-02-26T20:58:17.273Z,70.20
2023-02-26T21:00:44.906Z,70.30
2023-02-26T21:03:12.912Z,70.70
2023-02-26T21:05:41.733Z,70.60
2023-02-26T21:08:10.592Z,70.60
2023-02-26T21:10:38.744Z,70.30
2023-02-26T21:13:06.269Z,70.60
2023-02-26T21:15:34.020Z,70.50
2023-02-26T21:18:01.787Z,70.30
2023-02-26T21:20:30.058Z,70.20
2023-02-26T21:22:57.770Z,70.10
2023-02-26T21:25:25.156Z,70.10
2023-02-26T21:27:55.151Z,70.10
2023-02-26T21:30:24.314Z,70.20
2023-02-26T21:32:51.709Z,69.80
2023-02-26T21:35:19.349Z,69.60
2023-02-26T21:37:49.188Z,70.00
2023-02-26T21:40:21.458Z,70.00
2023-02-26T21:42:48.796Z,70.00
2023-02-26T21:45:16.284Z,70.80
2023-02-26T21:47:43.683Z,70.10
2023-02-26T21:50:11.484Z,70.30
2023-02-26T21:52:38.782Z,70.60
2023-02-26T21:55:06.715Z,70.50
2023-02-26T21:57:34.007Z,70.50
2023-02-26T22:00:01.436Z,70.80
2023-02-26T22:02:31.082Z,70.80
2023-02-26T22:04:58.817Z,70.50
2023-02-26T22:07:26.086Z,70.60
2023-02-26T22:09:53.616Z,70.60
2023-02-26T22:12:21.047Z,70.80
2023-02-26T22:14:49.278Z,71.00
2023-02-26T22:17:16.542Z,71.20
2023-02-26T22:19:43.806Z,71.30
2023-02-26T22:22:11.553Z,71.60
2023-02-26T22:24:40.958Z,71.60
2023-02-26T22:27:08.535Z,71.70
2023-02-26T22:29:36.083Z,71.70
2023-02-26T22:32:03.448Z,71.80
2023-02-26T22:34:33.694Z,71.70
2023-02-26T22:37:01.847Z,71.50
2023-02-26T22:39:29.300Z,71.70
2023-02-26T22:41:56.572Z,71.70
2023-02-26T22:44:23.961Z,71.80
2023-02-26T22:46:51.587Z,71.90
2023-02-26T22:49:19.755Z,72.00
2023-02-26T22:51:47.691Z,72.10
2023-02-26T22:54:15.018Z,72.10
2023-02-26T22:56:42.602Z,72.00
2023-02-26T22:59:09.988Z,72.20
2023-02-26T23:01:37.284Z,72.30
2023-02-26T23:04:04.768Z,72.30
2023-02-26T23:06:32.316Z,72.10
2023-02-26T23:08:59.639Z,72.10
2023-02-26T23:11:27.129Z,72.20
2023-02-26T23:13:54.597Z,72.20
2023-02-26T23:16:22.317Z,72.20
2023-02-26T23:18:49.676Z,72.30
2023-02-26T23:21:17.000Z,72.50
2023-02-26T23:23:44.337Z,72.40
2023-02-26T23:26:12.273Z,72.60
2023-02-26T23:28:39.999Z,73.00
2023-02-26T23:31:07.898Z,73.30
2023-02-26T23:33:35.275Z,73.30
2023-02-26T23:36:02.574Z,73.10
2023-02-26T23:38:30.030Z,73.30
2023-02-26T23:40:57.316Z,73.50
2023-02-26T23:43:25.075Z,73.70
2023-02-26T23:45:52.377Z,73.90
2023-02-26T23:48:19.940Z,73.80
2023-02-26T23:50:50.374Z,73.70
2023-02-26T23:53:18.231Z,73.90
2023-02-26T23:55:47.268Z,74.30
2023-02-26T23:58:14.568Z,74.50
